sensor_id;sensor_type;location;lat;lon;timestamp;pressure;altitude;pressure_sealevel;temperature;humidity
51876;BME280;34054;52.100;5.116;2024-02-23T00:00:30;98440.38;;;5.76;100.00
51876;BME280;34054;52.100;5.116;2024-02-23T00:01:02;98438.53;;;5.72;100.00
51876;BME280;34054;52.100;5.116;2024-02-23T00:01:36;98439.53;;;5.81;100.00
51876;BME280;34054;52.100;5.116;2024-02-23T00:02:09;98441.69;;;5.84;100.00
51876;BME280;34054;52.100;5.116;2024-02-23T00:02:40;98442.75;;;5.83;100.00
51876;BME280;34054;52.100;5.116;2024-02-23T00:03:12;98450.53;;;5.85;100.00
51876;BME280;34054;52.100;5.116;2024-02-23T00:03:43;98446.53;;;5.82;100.00
51876;BME280;34054;52.100;5.116;2024-02-23T00:04:16;98444.41;;;5.79;100.00
51876;BME280;34054;52.100;5.116;2024-02-23T00:04:49;98449.47;;;5.86;100.00
51876;BME280;34054;52.100;5.116;2024-02-23T00:05:21;98444.59;;;5.88;100.00
51876;BME280;34054;52.100;5.116;2024-02-23T00:05:53;98446.00;;;5.80;100.00
51876;BME280;34054;52.100;5.116;2024-02-23T00:06:25;98431.22;;;5.77;100.00
51876;BME280;34054;52.100;5.116;2024-02-23T00:06:58;98438.16;;;5.84;100.00
51876;BME280;34054;52.100;5.116;2024-02-23T00:07:30;98444.88;;;5.86;100.00
51876;BME280;34054;52.100;5.116;2024-02-23T00:08:06;98455.38;;;5.88;100.00
51876;BME280;34054;52.100;5.116;2024-02-23T00:08:38;98452.47;;;5.79;100.00
51876;BME280;34054;52.100;5.116;2024-02-23T00:09:12;98452.16;;;5.86;100.00
51876;BME280;34054;52.100;5.116;2024-02-23T00:09:44;98450.00;;;5.88;100.00
51876;BME280;34054;52.100;5.116;2024-02-23T00:10:16;98449.69;;;5.89;100.00
51876;BME280;34054;52.100;5.116;2024-02-23T00:10:48;98455.31;;;5.93;100.00
51876;BME280;34054;52.100;5.116;2024-02-23T00:11:20;98469.09;;;5.86;100.00
51876;BME280;34054;52.100;5.116;2024-02-23T00:11:51;98454.78;;;5.91;100.00
51876;BME280;34054;52.100;5.116;2024-02-23T00:12:24;98460.91;;;6.02;100.00
51876;BME280;34054;52.100;5.116;2024-02-23T00:12:55;98455.25;;;5.98;100.00
51876;BME280;34054;52.100;5.116;2024-02-23T00:13:27;98466.56;;;6.05;100.00
51876;BME280;34054;52.100;5.116;2024-02-23T00:13:58;98468.72;;;6.03;100.00
51876;BME280;34054;52.100;5.116;2024-02-23T00:14:31;98455.78;;;6.05;100.00
51876;BME280;34054;52.100;5.116;2024-02-23T00:15:04;98459.63;;;5.94;100.00
51876;BME280;34054;52.100;5.116;2024-02-23T00:15:36;98460.06;;;6.06;100.00
51876;BME280;34054;52.100;5.116;2024-02-23T00:16:07;98463.88;;;6.00;100.00
51876;BME280;34054;52.100;5.116;2024-02-23T00:16:40;98460.16;;;5.96;100.00
51876;BME280;34054;52.100;5.116;2024-02-23T00:17:12;98465.25;;;5.97;100.00
51876;BME280;34054;52.100;5.116;2024-02-23T00:17:44;98473.41;;;5.87;100.00
51876;BME280;34054;52.100;5.116;2024-02-23T00:18:15;98469.56;;;5.93;100.00
51876;BME280;34054;52.100;5.116;2024-02-23T00:18:47;98464.19;;;5.93;100.00
51876;BME280;34054;52.100;5.116;2024-02-23T00:19:20;98467.34;;;6.06;100.00
51876;BME280;34054;52.100;5.116;2024-02-23T00:19:52;98463.56;;;6.07;100.00
51876;BME280;34054;52.100;5.116;2024-02-23T00:20:24;98462.19;;;6.09;100.00
51876;BME280;34054;52.100;5.116;2024-02-23T00:20:56;98468.34;;;6.15;100.00
51876;BME280;34054;52.100;5.116;2024-02-23T00:21:28;98474.47;;;6.21;100.00
51876;BME280;34054;52.100;5.116;2024-02-23T00:21:59;98466.44;;;6.16;100.00
51876;BME280;34054;52.100;5.116;2024-02-23T00:22:32;98466.28;;;6.02;100.00
51876;BME280;34054;52.100;5.116;2024-02-23T00:23:05;98469.31;;;5.95;100.00
51876;BME280;34054;52.100;5.116;2024-02-23T00:23:36;98473.19;;;6.13;100.00
51876;BME280;34054;52.100;5.116;2024-02-23T00:24:09;98472.72;;;6.06;100.00
51876;BME280;34054;52.100;5.116;2024-02-23T00:24:42;98460.88;;;6.07;100.00
51876;BME280;34054;52.100;5.116;2024-02-23T00:25:14;98474.13;;;6.03;100.00
51876;BME280;34054;52.100;5.116;2024-02-23T00:25:45;98475.38;;;6.11;100.00
51876;BME280;34054;52.100;5.116;2024-02-23T00:26:18;98473.44;;;6.17;100.00
51876;BME280;34054;52.100;5.116;2024-02-23T00:26:49;98474.34;;;6.07;100.00
51876;BME280;34054;52.100;5.116;2024-02-23T00:27:22;98468.78;;;5.93;100.00
51876;BME280;34054;52.100;5.116;2024-02-23T00:27:53;98472.72;;;6.06;100.00
51876;BME280;34054;52.100;5.116;2024-02-23T00:28:26;98478.03;;;6.16;100.00
51876;BME280;34054;52.100;5.116;2024-02-23T00:28:57;98474.47;;;6.21;100.00
51876;BME280;34054;52.100;5.116;2024-02-23T00:29:29;98473.38;;;6.22;100.00
51876;BME280;34054;52.100;5.116;2024-02-23T00:30:03;98476.41;;;6.15;100.00
51876;BME280;34054;52.100;5.116;2024-02-23T00:30:36;98467.91;;;6.03;100.00
51876;BME280;34054;52.100;5.116;2024-02-23T00:31:08;98466.72;;;6.14;100.00
51876;BME280;34054;52.100;5.116;2024-02-23T00:31:39;98476.56;;;6.24;100.00
51876;BME280;34054;52.100;5.116;2024-02-23T00:32:12;98475.25;;;6.21;100.00
51876;BME280;34054;52.100;5.116;2024-02-23T00:32:43;98479.03;;;6.20;100.00
51876;BME280;34054;52.100;5.116;2024-02-23T00:33:15;98480.19;;;6.14;100.00
51876;BME280;34054;52.100;5.116;2024-02-23T00:33:47;98482.59;;;6.16;100.00
51876;BME280;34054;52.100;5.116;2024-02-23T00:34:19;98484.72;;;6.19;100.00
51876;BME280;34054;52.100;5.116;2024-02-23T00:34:51;98492.03;;;6.18;100.00
51876;BME280;34054;52.100;5.116;2024-02-23T00:35:22;98490.69;;;6.16;100.00
51876;BME280;34054;52.100;5.116;2024-02-23T00:35:55;98478.03;;;6.16;100.00
51876;BME280;34054;52.100;5.116;2024-02-23T00:36:26;98489.13;;;6.09;100.00
51876;BME280;34054;52.100;5.116;2024-02-23T00:36:58;98488.06;;;6.10;100.00
51876;BME280;34054;52.100;5.116;2024-02-23T00:37:30;98489.78;;;6.25;100.00
51876;BME280;34054;52.100;5.116;2024-02-23T00:38:06;98479.88;;;6.21;100.00
51876;BME280;34054;52.100;5.116;2024-02-23T00:38:38;98489.44;;;6.32;100.00
51876;BME280;34054;52.100;5.116;2024-02-23T00:39:10;98490.78;;;6.35;100.00
51876;BME280;34054;52.100;5.116;2024-02-23T00:39:43;98486.72;;;6.32;100.00
51876;BME280;34054;52.100;5.116;2024-02-23T00:40:16;98496.16;;;6.35;100.00
51876;BME280;34054;52.100;5.116;2024-02-23T00:40:47;98492.94;;;6.33;100.00
51876;BME280;34054;52.100;5.116;2024-02-23T00:41:19;98480.88;;;6.25;100.00
51876;BME280;34054;52.100;5.116;2024-02-23T00:41:51;98490.06;;;6.24;100.00
51876;BME280;34054;52.100;5.116;2024-02-23T00:42:23;98494.88;;;6.27;100.00
51876;BME280;34054;52.100;5.116;2024-02-23T00:42:54;98493.97;;;6.12;100.00
51876;BME280;34054;52.100;5.116;2024-02-23T00:43:26;98488.06;;;6.10;100.00
51876;BME280;34054;52.100;5.116;2024-02-23T00:44:00;98490.28;;;5.98;100.00
51876;BME280;34054;52.100;5.116;2024-02-23T00:44:31;98495.66;;;6.03;100.00
51876;BME280;34054;52.100;5.116;2024-02-23T00:45:04;98494.53;;;6.09;100.00
51876;BME280;34054;52.100;5.116;2024-02-23T00:45:37;98496.94;;;6.11;100.00
51876;BME280;34054;52.100;5.116;2024-02-23T00:46:08;98505.84;;;6.11;100.00
51876;BME280;34054;52.100;5.116;2024-02-23T00:46:40;98497.75;;;6.11;100.00
51876;BME280;34054;52.100;5.116;2024-02-23T00:47:11;98499.22;;;6.23;100.00
51876;BME280;34054;52.100;5.116;2024-02-23T00:47:44;98504.06;;;6.26;100.00
51876;BME280;34054;52.100;5.116;2024-02-23T00:48:17;98504.44;;;6.14;100.00
51876;BME280;34054;52.100;5.116;2024-02-23T00:48:49;98504.13;;;6.21;100.00
51876;BME280;34054;52.100;5.116;2024-02-23T00:49:20;98509.97;;;6.28;100.00
51876;BME280;34054;52.100;5.116;2024-02-23T00:49:53;98504.88;;;6.26;100.00
51876;BME280;34054;52.100;5.116;2024-02-23T00:50:25;98507.31;;;6.23;100.00
51876;BME280;34054;52.100;5.116;2024-02-23T00:50:57;98520.28;;;6.21;100.00
51876;BME280;34054;52.100;5.116;2024-02-23T00:51:29;98519.72;;;6.24;100.00
51876;BME280;34054;52.100;5.116;2024-02-23T00:52:02;98517.13;;;6.13;100.00
51876;BME280;34054;52.100;5.116;2024-02-23T00:52:33;98527.88;;;5.84;100.00
51876;BME280;34054;52.100;5.116;2024-02-23T00:53:05;98510.06;;;5.54;100.00
51876;BME280;34054;52.100;5.116;2024-02-23T00:53:36;98511.50;;;5.75;100.00
51876;BME280;34054;52.100;5.116;2024-02-23T00:54:09;98530.66;;;5.74;100.00
51876;BME280;34054;52.100;5.116;2024-02-23T00:54:40;98534.59;;;5.87;100.00
51876;BME280;34054;52.100;5.116;2024-02-23T00:55:13;98526.81;;;5.80;100.00
51876;BME280;34054;52.100;5.116;2024-02-23T00:55:46;98526.38;;;5.68;100.00
51876;BME280;34054;52.100;5.116;2024-02-23T00:56:20;98528.88;;;5.59;100.00
51876;BME280;34054;52.100;5.116;2024-02-23T00:56:51;98533.41;;;5.63;100.00
51876;BME280;34054;52.100;5.116;2024-02-23T00:57:23;98550.28;;;5.74;100.00
51876;BME280;34054;52.100;5.116;2024-02-23T00:58:00;98528.31;;;5.62;100.00
51876;BME280;34054;52.100;5.116;2024-02-23T00:58:32;98522.34;;;5.65;100.00
51876;BME280;34054;52.100;5.116;2024-02-23T00:59:03;98527.50;;;5.61;100.00
51876;BME280;34054;52.100;5.116;2024-02-23T00:59:35;98527.50;;;5.61;100.00
51876;BME280;34054;52.100;5.116;2024-02-23T01:00:07;98516.47;;;5.58;100.00
51876;BME280;34054;52.100;5.116;2024-02-23T01:00:41;98532.31;;;5.64;100.00
51876;BME280;34054;52.100;5.116;2024-02-23T01:01:13;98533.69;;;5.62;100.00
51876;BME280;34054;52.100;5.116;2024-02-23T01:01:45;98528.13;;;5.48;100.00
51876;BME280;34054;52.100;5.116;2024-02-23T01:02:16;98534.88;;;5.45;100.00
51876;BME280;34054;52.100;5.116;2024-02-23T01:02:48;98537.53;;;5.50;100.00
51876;BME280;34054;52.100;5.116;2024-02-23T01:03:21;98538.69;;;5.39;100.00
51876;BME280;34054;52.100;5.116;2024-02-23T01:03:53;98535.75;;;5.35;100.00
51876;BME280;34054;52.100;5.116;2024-02-23T01:04:24;98537.69;;;5.25;100.00
51876;BME280;34054;52.100;5.116;2024-02-23T01:04:59;98538.78;;;5.24;100.00
51876;BME280;34054;52.100;5.116;2024-02-23T01:05:31;98528.25;;;5.32;100.00
51876;BME280;34054;52.100;5.116;2024-02-23T01:06:03;98538.19;;;5.37;100.00
51876;BME280;34054;52.100;5.116;2024-02-23T01:06:35;98545.47;;;5.31;100.00
51876;BME280;34054;52.100;5.116;2024-02-23T01:07:07;98545.28;;;5.12;100.00
51876;BME280;34054;52.100;5.116;2024-02-23T01:07:39;98549.38;;;5.05;100.00
51876;BME280;34054;52.100;5.116;2024-02-23T01:08:11;98544.78;;;5.10;100.00
51876;BME280;34054;52.100;5.116;2024-02-23T01:08:42;98542.59;;;5.17;100.00
51876;BME280;34054;52.100;5.116;2024-02-23T01:09:14;98548.25;;;5.16;100.00
51876;BME280;34054;52.100;5.116;2024-02-23T01:09:47;98547.94;;;5.23;100.00
51876;BME280;34054;52.100;5.116;2024-02-23T01:10:20;98545.81;;;5.19;100.00
51876;BME280;34054;52.100;5.116;2024-02-23T01:10:52;98541.75;;;5.17;100.00
51876;BME280;34054;52.100;5.116;2024-02-23T01:11:24;98537.22;;;5.12;100.00
51876;BME280;34054;52.100;5.116;2024-02-23T01:11:56;98551.09;;;5.35;100.00
51876;BME280;34054;52.100;5.116;2024-02-23T01:12:27;98568.41;;;5.18;100.00
51876;BME280;34054;52.100;5.116;2024-02-23T01:12:59;98542.59;;;5.17;100.00
51876;BME280;34054;52.100;5.116;2024-02-23T01:13:32;98552.28;;;5.13;100.00
51876;BME280;34054;52.100;5.116;2024-02-23T01:14:03;98559.06;;;5.00;100.00
51876;BME280;34054;52.100;5.116;2024-02-23T01:14:35;98549.38;;;4.99;100.00
51876;BME280;34054;52.100;5.116;2024-02-23T01:15:06;98558.81;;;5.02;100.00
51876;BME280;34054;52.100;5.116;2024-02-23T01:15:40;98549.66;;;5.03;100.00
51876;BME280;34054;52.100;5.116;2024-02-23T01:16:12;98553.94;;;5.04;100.00
51876;BME280;34054;52.100;5.116;2024-02-23T01:16:44;98546.69;;;5.05;100.00
51876;BME280;34054;52.100;5.116;2024-02-23T01:17:16;98555.91;;;4.83;100.00
51876;BME280;34054;52.100;5.116;2024-02-23T01:17:48;98559.41;;;4.78;100.00
51876;BME280;34054;52.100;5.116;2024-02-23T01:18:19;98575.28;;;4.90;100.00
51876;BME280;34054;52.100;5.116;2024-02-23T01:18:51;98571.72;;;5.00;100.00
51876;BME280;34054;52.100;5.116;2024-02-23T01:19:24;98567.38;;;5.04;100.00
51876;BME280;34054;52.100;5.116;2024-02-23T01:19:55;98573.31;;;5.11;100.00
51876;BME280;34054;52.100;5.116;2024-02-23T01:20:27;98570.38;;;5.02;100.00
51876;BME280;34054;52.100;5.116;2024-02-23T01:20:59;98575.72;;;5.08;100.00
51876;BME280;34054;52.100;5.116;2024-02-23T01:21:31;98581.97;;;4.93;100.00
51876;BME280;34054;52.100;5.116;2024-02-23T01:22:03;98586.00;;;4.95;100.00
51876;BME280;34054;52.100;5.116;2024-02-23T01:22:34;98583.03;;;4.97;100.00
51876;BME280;34054;52.100;5.116;2024-02-23T01:23:06;98591.91;;;4.92;100.00
51876;BME280;34054;52.100;5.116;2024-02-23T01:23:39;98589.22;;;4.97;100.00
51876;BME280;34054;52.100;5.116;2024-02-23T01:24:10;98578.41;;;5.08;100.00
51876;BME280;34054;52.100;5.116;2024-02-23T01:24:42;98572.22;;;5.07;100.00
51876;BME280;34054;52.100;5.116;2024-02-23T01:25:14;98571.41;;;5.12;100.00
51876;BME280;34054;52.100;5.116;2024-02-23T01:25:48;98599.09;;;5.17;100.00
51876;BME280;34054;52.100;5.116;2024-02-23T01:26:20;98591.34;;;5.06;100.00
51876;BME280;34054;52.100;5.116;2024-02-23T01:26:51;98586.47;;;5.08;100.00
51876;BME280;34054;52.100;5.116;2024-02-23T01:27:24;98576.56;;;5.03;100.00
51876;BME280;34054;52.100;5.116;2024-02-23T01:27:55;98586.59;;;4.77;100.00
51876;BME280;34054;52.100;5.116;2024-02-23T01:28:27;98600.38;;;4.60;100.00
51876;BME280;34054;52.100;5.116;2024-02-23T01:28:58;98592.88;;;4.41;100.00
51876;BME280;34054;52.100;5.116;2024-02-23T01:29:31;98588.53;;;4.55;100.00
51876;BME280;34054;52.100;5.116;2024-02-23T01:30:05;98591.25;;;4.40;100.00
51876;BME280;34054;52.100;5.116;2024-02-23T01:30:37;98592.03;;;4.56;100.00
51876;BME280;34054;52.100;5.116;2024-02-23T01:31:11;98591.75;;;4.63;100.00
51876;BME280;34054;52.100;5.116;2024-02-23T01:31:42;98586.91;;;4.65;100.00
51876;BME280;34054;52.100;5.116;2024-02-23T01:32:14;98580.97;;;4.73;100.00
51876;BME280;34054;52.100;5.116;2024-02-23T01:32:46;98595.72;;;4.86;100.00
51876;BME280;34054;52.100;5.116;2024-02-23T01:33:18;98593.31;;;4.84;100.00
51876;BME280;34054;52.100;5.116;2024-02-23T01:33:50;98580.97;;;4.73;100.00
51876;BME280;34054;52.100;5.116;2024-02-23T01:34:22;98589.28;;;4.77;100.00
51876;BME280;34054;52.100;5.116;2024-02-23T01:34:54;98572.91;;;4.63;100.00
51876;BME280;34054;52.100;5.116;2024-02-23T01:35:26;98599.47;;;4.85;100.00
51876;BME280;34054;52.100;5.116;2024-02-23T01:35:58;98585.25;;;4.84;100.00
51876;BME280;34054;52.100;5.116;2024-02-23T01:36:30;98591.16;;;4.81;100.00
51876;BME280;34054;52.100;5.116;2024-02-23T01:37:01;98592.16;;;4.96;100.00
51876;BME280;34054;52.100;5.116;2024-02-23T01:37:34;98598.66;;;4.90;100.00
51876;BME280;34054;52.100;5.116;2024-02-23T01:38:05;98590.56;;;4.95;100.00
51876;BME280;34054;52.100;5.116;2024-02-23T01:38:37;98595.69;;;4.96;100.00
51876;BME280;34054;52.100;5.116;2024-02-23T01:39:09;98591.63;;;4.99;100.00
51876;BME280;34054;52.100;5.116;2024-02-23T01:39:42;98587.03;;;4.99;100.00
51876;BME280;34054;52.100;5.116;2024-02-23T01:40:13;98593.53;;;4.98;100.00
51876;BME280;34054;52.100;5.116;2024-02-23T01:40:45;98589.47;;;5.01;100.00
51876;BME280;34054;52.100;5.116;2024-02-23T01:41:19;98587.84;;;5.10;100.00
51876;BME280;34054;52.100;5.116;2024-02-23T01:41:51;98579.44;;;5.17;100.00
51876;BME280;34054;52.100;5.116;2024-02-23T01:42:22;98583.72;;;5.23;100.00
51876;BME280;34054;52.100;5.116;2024-02-23T01:43:01;98584.06;;;5.11;100.00
51876;BME280;34054;52.100;5.116;2024-02-23T01:43:34;98573.81;;;5.18;100.00
51876;BME280;34054;52.100;5.116;2024-02-23T01:44:06;98586.44;;;5.23;100.00
51876;BME280;34054;52.100;5.116;2024-02-23T01:44:37;98582.41;;;5.15;100.00
51876;BME280;34054;52.100;5.116;2024-02-23T01:45:11;98582.13;;;5.17;100.00
51876;BME280;34054;52.100;5.116;2024-02-23T01:45:42;98581.38;;;5.06;100.00
51876;BME280;34054;52.100;5.116;2024-02-23T01:46:14;98580.81;;;5.14;100.00
51876;BME280;34054;52.100;5.116;2024-02-23T01:46:50;98582.66;;;5.24;100.00
51876;BME280;34054;52.100;5.116;2024-02-23T01:47:23;98581.84;;;5.24;100.00
51876;BME280;34054;52.100;5.116;2024-02-23T01:47:55;98581.03;;;5.23;100.00
51876;BME280;34054;52.100;5.116;2024-02-23T01:48:27;98586.69;;;5.22;100.00
51876;BME280;34054;52.100;5.116;2024-02-23T01:48:59;98578.09;;;5.19;100.00
51876;BME280;34054;52.100;5.116;2024-02-23T01:49:32;98578.84;;;5.25;100.00
51876;BME280;34054;52.100;5.116;2024-02-23T01:50:05;98586.38;;;5.28;100.00
51876;BME280;34054;52.100;5.116;2024-02-23T01:50:39;98583.41;;;5.30;100.00
51876;BME280;34054;52.100;5.116;2024-02-23T01:51:12;98586.69;;;5.27;100.00
51876;BME280;34054;52.100;5.116;2024-02-23T01:51:44;98594.44;;;5.33;100.00
51876;BME280;34054;52.100;5.116;2024-02-23T01:52:16;98581.75;;;5.39;100.00
51876;BME280;34054;52.100;5.116;2024-02-23T01:52:48;98608.66;;;5.44;100.00
51876;BME280;34054;52.100;5.116;2024-02-23T01:53:24;98587.19;;;5.34;100.00
51876;BME280;34054;52.100;5.116;2024-02-23T01:53:58;98588.47;;;5.42;100.00
51876;BME280;34054;52.100;5.116;2024-02-23T01:54:30;98595.69;;;5.46;100.00
51876;BME280;34054;52.100;5.116;2024-02-23T01:55:04;98594.19;;;5.30;100.00
51876;BME280;34054;52.100;5.116;2024-02-23T01:55:36;98589.81;;;5.39;100.00
51876;BME280;34054;52.100;5.116;2024-02-23T01:56:09;98599.81;;;5.33;100.00
51876;BME280;34054;52.100;5.116;2024-02-23T01:56:44;98598.19;;;5.38;100.00
51876;BME280;34054;52.100;5.116;2024-02-23T01:57:18;98602.25;;;5.35;100.00
51876;BME280;34054;52.100;5.116;2024-02-23T01:57:50;98593.09;;;5.36;100.00
51876;BME280;34054;52.100;5.116;2024-02-23T01:58:22;98595.19;;;5.44;100.00
51876;BME280;34054;52.100;5.116;2024-02-23T01:58:54;98602.44;;;5.49;100.00
51876;BME280;34054;52.100;5.116;2024-02-23T01:59:28;98597.56;;;5.51;100.00
51876;BME280;34054;52.100;5.116;2024-02-23T02:00:01;98592.75;;;5.43;100.00
51876;BME280;34054;52.100;5.116;2024-02-23T02:00:34;98590.13;;;5.38;100.00
51876;BME280;34054;52.100;5.116;2024-02-23T02:01:06;98589.81;;;5.39;100.00
51876;BME280;34054;52.100;5.116;2024-02-23T02:01:41;98601.13;;;5.41;100.00
51876;BME280;34054;52.100;5.116;2024-02-23T02:02:15;98593.28;;;5.45;100.00
51876;BME280;34054;52.100;5.116;2024-02-23T02:02:48;98590.91;;;5.43;100.00
51876;BME280;34054;52.100;5.116;2024-02-23T02:03:20;98582.81;;;5.38;100.00
51876;BME280;34054;52.100;5.116;2024-02-23T02:03:52;98580.66;;;5.40;100.00
51876;BME280;34054;52.100;5.116;2024-02-23T02:04:24;98596.03;;;5.40;100.00
51876;BME280;34054;52.100;5.116;2024-02-23T02:04:55;98593.06;;;5.41;100.00
51876;BME280;34054;52.100;5.116;2024-02-23T02:05:27;98586.06;;;5.40;100.00
51876;BME280;34054;52.100;5.116;2024-02-23T02:06:00;98601.41;;;5.34;100.00
51876;BME280;34054;52.100;5.116;2024-02-23T02:06:32;98585.28;;;5.34;100.00
51876;BME280;34054;52.100;5.116;2024-02-23T02:07:04;98593.28;;;5.50;100.00
51876;BME280;34054;52.100;5.116;2024-02-23T02:07:36;98585.53;;;5.38;100.00
51876;BME280;34054;52.100;5.116;2024-02-23T02:08:10;98593.53;;;5.48;100.00
51876;BME280;34054;52.100;5.116;2024-02-23T02:08:42;98599.50;;;5.45;100.00
51876;BME280;34054;52.100;5.116;2024-02-23T02:09:14;98594.13;;;5.45;100.00
51876;BME280;34054;52.100;5.116;2024-02-23T02:09:46;98594.63;;;5.53;100.00
51876;BME280;34054;52.100;5.116;2024-02-23T02:10:18;98593.78;;;5.57;100.00
51876;BME280;34054;52.100;5.116;2024-02-23T02:10:51;98596.47;;;5.57;100.00
51876;BME280;34054;52.100;5.116;2024-02-23T02:11:22;98595.63;;;5.62;100.00
51876;BME280;34054;52.100;5.116;2024-02-23T02:11:56;98603.03;;;5.35;100.00
51876;BME280;34054;52.100;5.116;2024-02-23T02:12:28;98589.56;;;5.35;100.00
51876;BME280;34054;52.100;5.116;2024-02-23T02:13:03;98594.63;;;5.53;100.00
51876;BME280;34054;52.100;5.116;2024-02-23T02:13:36;98602.66;;;5.58;100.00
51876;BME280;34054;52.100;5.116;2024-02-23T02:14:09;98597.06;;;5.44;100.00
51876;BME280;34054;52.100;5.116;2024-02-23T02:14:41;98603.28;;;5.44;100.00
51876;BME280;34054;52.100;5.116;2024-02-23T02:15:13;98604.31;;;5.48;100.00
51876;BME280;34054;52.100;5.116;2024-02-23T02:15:44;98603.19;;;5.55;100.00
51876;BME280;34054;52.100;5.116;2024-02-23T02:16:17;98602.69;;;5.47;100.00
51876;BME280;34054;52.100;5.116;2024-02-23T02:16:48;98609.41;;;5.55;100.00
51876;BME280;34054;52.100;5.116;2024-02-23T02:17:20;98592.19;;;5.51;100.00
51876;BME280;34054;52.100;5.116;2024-02-23T02:17:51;98600.28;;;5.46;100.00
51876;BME280;34054;52.100;5.116;2024-02-23T02:18:24;98597.91;;;5.39;100.00
51876;BME280;34054;52.100;5.116;2024-02-23T02:18:55;98599.56;;;5.35;100.00
51876;BME280;34054;52.100;5.116;2024-02-23T02:19:27;98596.06;;;5.29;100.00
51876;BME280;34054;52.100;5.116;2024-02-23T02:20:02;98615.13;;;5.38;100.00
51876;BME280;34054;52.100;5.116;2024-02-23T02:20:36;98614.63;;;5.31;100.00
51876;BME280;34054;52.100;5.116;2024-02-23T02:21:12;98612.19;;;5.34;100.00
51876;BME280;34054;52.100;5.116;2024-02-23T02:21:43;98609.69;;;5.48;100.00
51876;BME280;34054;52.100;5.116;2024-02-23T02:22:16;98604.00;;;5.55;100.00
51876;BME280;34054;52.100;5.116;2024-02-23T02:22:48;98611.84;;;5.46;100.00
51876;BME280;34054;52.100;5.116;2024-02-23T02:23:19;98624.56;;;5.41;100.00
51876;BME280;34054;52.100;5.116;2024-02-23T02:23:51;98615.16;;;5.33;100.00
51876;BME280;34054;52.100;5.116;2024-02-23T02:24:23;98606.25;;;5.38;100.00
51876;BME280;34054;52.100;5.116;2024-02-23T02:24:55;98609.25;;;5.31;100.00
51876;BME280;34054;52.100;5.116;2024-02-23T02:25:27;98618.16;;;5.31;100.00
51876;BME280;34054;52.100;5.116;2024-02-23T02:25:58;98618.44;;;5.25;100.00
51876;BME280;34054;52.100;5.116;2024-02-23T02:26:31;98621.38;;;5.28;100.00
51876;BME280;34054;52.100;5.116;2024-02-23T02:27:04;98614.06;;;5.39;100.00
51876;BME280;34054;52.100;5.116;2024-02-23T02:27:37;98625.19;;;5.17;100.00
51876;BME280;34054;52.100;5.116;2024-02-23T02:28:11;98617.59;;;5.29;100.00
51876;BME280;34054;52.100;5.116;2024-02-23T02:28:42;98628.38;;;5.29;100.00
51876;BME280;34054;52.100;5.116;2024-02-23T02:29:14;98619.47;;;5.34;100.00
51876;BME280;34054;52.100;5.116;2024-02-23T02:29:49;98613.34;;;5.23;100.00
51876;BME280;34054;52.100;5.116;2024-02-23T02:30:21;98620.91;;;5.11;100.00
51876;BME280;34054;52.100;5.116;2024-02-23T02:30:53;98619.00;;;5.16;100.00
51876;BME280;34054;52.100;5.116;2024-02-23T02:31:25;98626.75;;;5.28;100.00
51876;BME280;34054;52.100;5.116;2024-02-23T02:31:57;98607.66;;;5.25;100.00
51876;BME280;34054;52.100;5.116;2024-02-23T02:32:29;98612.25;;;5.24;100.00
51876;BME280;34054;52.100;5.116;2024-02-23T02:33:01;98611.19;;;5.20;100.00
51876;BME280;34054;52.100;5.116;2024-02-23T02:33:32;98611.09;;;5.35;100.00
51876;BME280;34054;52.100;5.116;2024-02-23T02:34:05;98616.78;;;5.34;100.00
51876;BME280;34054;52.100;5.116;2024-02-23T02:34:36;98606.31;;;5.32;100.00
51876;BME280;34054;52.100;5.116;2024-02-23T02:35:10;98622.44;;;5.32;100.00
51876;BME280;34054;52.100;5.116;2024-02-23T02:35:42;98615.25;;;5.17;100.00
51876;BME280;34054;52.100;5.116;2024-02-23T02:36:15;98598.56;;;5.15;100.00
51876;BME280;34054;52.100;5.116;2024-02-23T02:36:47;98614.41;;;5.17;100.00
51876;BME280;34054;52.100;5.116;2024-02-23T02:37:18;98608.22;;;5.22;100.00
51876;BME280;34054;52.100;5.116;2024-02-23T02:37:50;98611.72;;;5.22;100.00
51876;BME280;34054;52.100;5.116;2024-02-23T02:38:22;98615.22;;;5.23;100.00
51876;BME280;34054;52.100;5.116;2024-02-23T02:38:54;98623.28;;;5.23;100.00
51876;BME280;34054;52.100;5.116;2024-02-23T02:39:26;98618.59;;;5.44;100.00
51876;BME280;34054;52.100;5.116;2024-02-23T02:39:58;98612.38;;;5.54;100.00
51876;BME280;34054;52.100;5.116;2024-02-23T02:40:30;98614.00;;;5.49;100.00
51876;BME280;34054;52.100;5.116;2024-02-23T02:41:03;98626.75;;;5.28;100.00
51876;BME280;34054;52.100;5.116;2024-02-23T02:41:35;98619.22;;;5.25;100.00
51876;BME280;34054;52.100;5.116;2024-02-23T02:42:08;98616.06;;;5.08;100.00
51876;BME280;34054;52.100;5.116;2024-02-23T02:42:41;98628.19;;;5.05;100.00
51876;BME280;34054;52.100;5.116;2024-02-23T02:43:13;98620.41;;;5.03;100.00
51876;BME280;34054;52.100;5.116;2024-02-23T02:43:44;98612.56;;;5.12;100.00
51876;BME280;34054;52.100;5.116;2024-02-23T02:44:16;98617.91;;;5.23;100.00
51876;BME280;34054;52.100;5.116;2024-02-23T02:44:48;98609.28;;;5.21;100.00
51876;BME280;34054;52.100;5.116;2024-02-23T02:45:20;98620.88;;;5.21;100.00
51876;BME280;34054;52.100;5.116;2024-02-23T02:45:52;98588.66;;;5.00;100.00
51876;BME280;34054;52.100;5.116;2024-02-23T02:46:25;98619.28;;;5.10;100.00
51876;BME280;34054;52.100;5.116;2024-02-23T02:46:56;98615.81;;;5.04;100.00
51876;BME280;34054;52.100;5.116;2024-02-23T02:47:28;98609.28;;;5.21;100.00
51876;BME280;34054;52.100;5.116;2024-02-23T02:48:00;98607.66;;;5.25;100.00
51876;BME280;34054;52.100;5.116;2024-02-23T02:48:33;98612.56;;;5.12;100.00
51876;BME280;34054;52.100;5.116;2024-02-23T02:49:05;98622.25;;;5.13;100.00
51876;BME280;34054;52.100;5.116;2024-02-23T02:49:36;98609.59;;;5.14;100.00
51876;BME280;34054;52.100;5.116;2024-02-23T02:50:08;98622.81;;;5.10;100.00
51876;BME280;34054;52.100;5.116;2024-02-23T02:50:41;98627.38;;;5.15;100.00
51876;BME280;34054;52.100;5.116;2024-02-23T02:51:13;98615.81;;;5.09;100.00